createdAt,value
2019-05-09T00:02:34.686Z,10.05
2019-05-09T00:05:05.072Z,10.48
2019-05-09T00:07:34.732Z,12.00
2019-05-09T00:10:05.591Z,9.80
2019-05-09T00:12:35.241Z,14.75
2019-05-09T00:15:06.705Z,9.75
2019-05-09T00:17:36.365Z,10.48
2019-05-09T00:20:08.170Z,13.15
2019-05-09T00:22:37.836Z,14.28
2019-05-09T00:25:07.890Z,9.53
2019-05-09T00:27:37.768Z,10.82
2019-05-09T00:30:08.005Z,11.08
2019-05-09T00:32:39.396Z,12.65
2019-05-09T00:35:23.375Z,11.25
2019-05-09T00:37:54.938Z,11.85
2019-05-09T00:40:25.208Z,10.72
2019-05-09T00:42:55.127Z,10.78
2019-05-09T00:45:43.771Z,12.00
2019-05-09T00:48:14.524Z,16.00
2019-05-09T00:50:44.147Z,11.70
2019-05-09T00:53:13.927Z,13.43
2019-05-09T00:55:43.721Z,11.28
2019-05-09T00:58:13.682Z,9.48
2019-05-09T01:00:43.950Z,11.65
2019-05-09T01:03:14.315Z,9.65
2019-05-09T01:05:47.240Z,15.25
2019-05-09T01:08:16.605Z,13.03
2019-05-09T01:10:47.685Z,10.80
2019-05-09T01:13:18.828Z,13.40
2019-05-09T01:15:49.883Z,9.55
2019-05-09T01:18:19.537Z,10.88
2019-05-09T01:20:49.261Z,11.60
2019-05-09T01:23:20.348Z,12.82
2019-05-09T01:25:52.958Z,12.37
2019-05-09T01:28:23.216Z,13.48
2019-05-09T01:30:53.307Z,10.45
2019-05-09T01:33:24.730Z,12.75
2019-05-09T01:35:54.852Z,13.48
2019-05-09T01:38:24.522Z,15.15
2019-05-09T01:40:54.138Z,13.72
2019-05-09T01:43:24.409Z,14.73
2019-05-09T01:45:54.174Z,10.43
2019-05-09T01:48:23.827Z,11.97
2019-05-09T01:50:53.829Z,13.48
2019-05-09T01:53:25.115Z,13.78
2019-05-09T01:55:57.785Z,12.73
2019-05-09T01:58:29.146Z,11.88
2019-05-09T02:00:59.345Z,13.20
2019-05-09T02:03:29.140Z,14.15
2019-05-09T02:05:58.797Z,13.20
2019-05-09T02:08:28.447Z,10.80
2019-05-09T02:10:58.104Z,15.65
2019-05-09T02:13:27.731Z,11.97
2019-05-09T02:16:14.694Z,14.07
2019-05-09T02:18:45.989Z,11.60
2019-05-09T02:21:15.641Z,11.50
2019-05-09T02:23:45.273Z,11.57
2019-05-09T02:26:15.393Z,12.80
2019-05-09T02:28:45.015Z,15.10
2019-05-09T02:31:16.289Z,12.25
2019-05-09T02:33:46.123Z,14.10
2019-05-09T02:36:18.753Z,15.03
2019-05-09T02:38:48.763Z,12.30
2019-05-09T02:41:19.726Z,13.90
2019-05-09T02:43:49.974Z,11.78
2019-05-09T02:46:29.406Z,14.25
2019-05-09T02:48:59.492Z,16.23
2019-05-09T02:51:29.552Z,16.70
2019-05-09T02:53:59.201Z,16.23
2019-05-09T02:56:29.827Z,14.50
2019-05-09T02:59:10.153Z,14.35
2019-05-09T03:01:58.753Z,14.23
2019-05-09T03:04:28.646Z,15.78
2019-05-09T03:06:59.653Z,15.40
2019-05-09T03:09:29.662Z,15.53
2019-05-09T03:12:19.533Z,14.60
2019-05-09T03:14:31.670Z,13.83
2019-05-09T03:17:01.325Z,15.83
2019-05-09T03:19:31.043Z,16.60
2019-05-09T03:22:13.766Z,16.25
2019-05-09T03:24:43.393Z,14.05
2019-05-09T03:27:18.725Z,15.20
2019-05-09T03:29:50.053Z,16.93
2019-05-09T03:32:21.096Z,17.32
2019-05-09T03:34:50.716Z,15.93
2019-05-09T03:37:20.369Z,16.70
2019-05-09T03:39:49.999Z,16.57
2019-05-09T03:42:22.998Z,15.48
2019-05-09T03:44:50.976Z,13.95
2019-05-09T03:47:27.901Z,12.55
2019-05-09T03:50:11.001Z,14.35
2019-05-09T03:52:40.730Z,13.38
2019-05-09T03:55:13.277Z,11.75
2019-05-09T03:57:44.651Z,13.08
2019-05-09T04:00:14.640Z,16.42
2019-05-09T04:02:44.264Z,15.60
2019-05-09T04:05:13.918Z,17.25
2019-05-09T04:07:43.548Z,26.70
2019-05-09T04:10:13.218Z,24.43
2019-05-09T04:12:53.889Z,22.67
2019-05-09T04:15:14.265Z,18.48
2019-05-09T04:17:44.374Z,13.60
2019-05-09T04:20:17.536Z,25.35
2019-05-09T04:22:49.039Z,21.48
2019-05-09T04:25:19.977Z,17.70
2019-05-09T04:27:51.237Z,14.98
2019-05-09T04:30:20.892Z,15.93
2019-05-09T04:32:50.516Z,14.58
2019-05-09T04:35:20.803Z,73.83
2019-05-09T04:37:50.458Z,84.75
2019-05-09T04:40:22.264Z,15.63
2019-05-09T04:42:51.893Z,12.35
2019-05-09T04:45:33.121Z,15.30
2019-05-09T04:48:00.457Z,15.60
2019-05-09T04:50:30.155Z,132.12
2019-05-09T04:55:48.509Z,15.58
2019-05-09T04:58:19.277Z,12.43
2019-05-09T05:01:07.365Z,14.60
2019-05-09T05:03:37.824Z,14.68
2019-05-09T05:06:07.760Z,12.63
2019-05-09T05:08:37.622Z,19.75
2019-05-09T05:11:07.575Z,16.37
2019-05-09T05:13:38.376Z,14.90
2019-05-09T05:16:08.435Z,16.82
2019-05-09T05:18:38.119Z,17.05
2019-05-09T05:21:07.953Z,14.90
2019-05-09T05:23:50.947Z,16.35
2019-05-09T05:26:21.748Z,14.23
2019-05-09T05:28:51.388Z,17.55
2019-05-09T05:31:21.052Z,16.05
2019-05-09T05:33:53.908Z,19.48
2019-05-09T05:36:24.030Z,16.93
2019-05-09T05:38:53.948Z,15.65
2019-05-09T05:41:23.608Z,18.32
2019-05-09T05:43:53.288Z,14.30
2019-05-09T05:46:30.547Z,30.92
2019-05-09T05:49:00.388Z,15.55
2019-05-09T05:51:31.719Z,19.37
2019-05-09T05:54:02.075Z,441.85
2019-05-09T05:56:31.705Z,17.25
2019-05-09T05:59:01.366Z,42.27
2019-05-09T06:01:31.459Z,22.27
2019-05-09T06:04:01.123Z,14.80
2019-05-09T06:06:33.072Z,19.25
2019-05-09T06:09:03.816Z,27.67
2019-05-09T06:11:33.444Z,19.52
2019-05-09T06:14:10.957Z,19.27
2019-05-09T06:16:37.824Z,27.02
2019-05-09T06:19:09.009Z,14.35
2019-05-09T06:21:38.762Z,16.85
2019-05-09T06:24:08.642Z,15.32
2019-05-09T06:26:38.254Z,16.70
2019-05-09T06:29:08.233Z,17.67
2019-05-09T06:31:37.856Z,14.90
2019-05-09T06:34:08.370Z,27.15
2019-05-09T06:36:39.073Z,19.90
2019-05-09T06:39:10.506Z,18.23
2019-05-09T06:41:40.103Z,16.45
2019-05-09T06:44:18.181Z,17.92
2019-05-09T06:46:48.253Z,14.87
2019-05-09T06:49:27.626Z,21.97
2019-05-09T06:51:50.952Z,17.67
2019-05-09T06:54:20.603Z,13.95
2019-05-09T06:56:50.233Z,16.00
2019-05-09T06:59:19.897Z,14.58
2019-05-09T07:01:53.876Z,24.15
2019-05-09T07:04:25.184Z,14.78
2019-05-09T07:06:58.743Z,35.05
2019-05-09T07:09:35.770Z,21.05
2019-05-09T07:12:07.649Z,18.00
2019-05-09T07:14:41.363Z,33.90
2019-05-09T07:17:08.618Z,45.75
2019-05-09T07:19:38.669Z,21.00
2019-05-09T07:22:18.416Z,14.90
2019-05-09T07:25:10.443Z,15.75
2019-05-09T07:27:42.498Z,15.03
2019-05-09T07:30:21.342Z,21.25
2019-05-09T07:33:01.637Z,17.42
2019-05-09T07:35:31.723Z,18.05
2019-05-09T07:38:01.381Z,21.27
2019-05-09T07:40:31.039Z,16.77
2019-05-09T07:43:00.698Z,17.98
2019-05-09T07:45:30.322Z,20.88
2019-05-09T07:48:00.317Z,18.55
2019-05-09T07:50:29.945Z,14.50
2019-05-09T07:53:00.222Z,16.93
2019-05-09T07:55:29.869Z,23.20
2019-05-09T07:57:59.515Z,21.25
2019-05-09T08:00:35.284Z,18.75
2019-05-09T08:03:08.336Z,20.62
2019-05-09T08:05:38.504Z,21.95
2019-05-09T08:08:11.762Z,25.72
2019-05-09T08:10:41.397Z,25.75
2019-05-09T08:13:12.050Z,48.02
2019-05-09T08:15:41.886Z,23.25
2019-05-09T08:18:11.643Z,27.42
2019-05-09T08:20:41.351Z,21.40
2019-05-09T08:23:11.080Z,30.08
2019-05-09T08:25:40.923Z,27.17
2019-05-09T08:28:10.716Z,26.15
2019-05-09T08:30:40.659Z,24.60
2019-05-09T08:33:10.307Z,19.50
2019-05-09T08:35:39.951Z,21.23
2019-05-09T08:38:09.614Z,60.25
2019-05-09T08:40:39.249Z,65.72
2019-05-09T08:43:08.917Z,48.95
2019-05-09T08:45:38.561Z,27.17
2019-05-09T08:48:09.425Z,16.93
2019-05-09T08:50:48.139Z,20.27
2019-05-09T08:53:18.937Z,16.10
2019-05-09T08:55:48.690Z,14.98
2019-05-09T08:58:19.673Z,15.45
2019-05-09T09:00:49.795Z,33.20
2019-05-09T09:03:19.477Z,30.10
2019-05-09T09:05:49.105Z,14.18
2019-05-09T09:08:18.771Z,24.35
2019-05-09T09:10:48.922Z,24.00
2019-05-09T09:13:18.668Z,17.52
2019-05-09T09:16:08.564Z,29.30
2019-05-09T09:18:19.664Z,24.80
2019-05-09T09:20:49.320Z,30.15
2019-05-09T09:23:19.065Z,19.30
2019-05-09T09:25:49.007Z,20.97
2019-05-09T09:28:18.640Z,19.35
2019-05-09T09:30:48.690Z,16.50
2019-05-09T09:33:18.316Z,16.87
2019-05-09T09:35:49.411Z,19.23
2019-05-09T09:38:19.040Z,15.10
2019-05-09T09:40:48.800Z,17.12
2019-05-09T09:43:18.432Z,21.48
2019-05-09T09:45:57.715Z,18.50
2019-05-09T09:48:19.505Z,23.32
2019-05-09T09:50:51.723Z,30.95
2019-05-09T09:53:20.490Z,21.68
2019-05-09T09:55:50.170Z,20.27
2019-05-09T09:58:19.813Z,26.52
2019-05-09T10:00:51.411Z,25.30
2019-05-09T10:03:21.129Z,19.82
2019-05-09T10:05:51.296Z,20.30
2019-05-09T10:08:21.164Z,17.95
2019-05-09T10:10:50.842Z,23.02
2019-05-09T10:13:20.524Z,18.50
2019-05-09T10:15:54.535Z,18.90
2019-05-09T10:18:38.223Z,24.63
2019-05-09T10:21:15.413Z,20.27
2019-05-09T10:23:45.036Z,15.88
2019-05-09T10:26:14.723Z,16.57
2019-05-09T10:28:45.510Z,18.57
2019-05-09T10:31:15.389Z,21.37
2019-05-09T10:33:45.015Z,20.08
2019-05-09T10:36:14.687Z,21.20
2019-05-09T10:38:44.336Z,19.65
2019-05-09T10:41:13.998Z,19.62
2019-05-09T10:43:45.265Z,27.40
2019-05-09T10:46:30.001Z,30.80
2019-05-09T10:49:04.543Z,62.40
2019-05-09T10:51:34.210Z,24.63
2019-05-09T10:54:03.955Z,25.57
2019-05-09T10:56:38.163Z,27.17
2019-05-09T10:59:07.839Z,21.75
2019-05-09T11:01:38.360Z,19.07
2019-05-09T11:04:08.533Z,16.52
2019-05-09T11:06:38.585Z,16.42
2019-05-09T11:09:09.948Z,17.12
2019-05-09T11:11:39.910Z,17.77
2019-05-09T11:14:09.534Z,20.97
2019-05-09T11:16:45.721Z,18.32
2019-05-09T11:19:10.529Z,19.27
2019-05-09T11:21:40.178Z,22.05
2019-05-09T11:24:09.951Z,31.65
2019-05-09T11:26:40.118Z,26.35
2019-05-09T11:29:09.822Z,30.30
2019-05-09T11:31:39.460Z,18.48
2019-05-09T11:34:09.237Z,16.77
2019-05-09T11:36:38.844Z,17.07
2019-05-09T11:39:10.734Z,20.08
2019-05-09T11:41:40.360Z,19.73
2019-05-09T11:44:10.129Z,20.30
2019-05-09T11:46:39.755Z,16.55
2019-05-09T11:49:09.416Z,14.53
2019-05-09T11:51:39.051Z,15.08
2019-05-09T11:54:09.273Z,16.17
2019-05-09T11:56:38.924Z,14.93
2019-05-09T11:59:10.022Z,17.10
2019-05-09T12:01:40.016Z,18.40
2019-05-09T12:04:09.884Z,18.35
2019-05-09T12:06:39.512Z,17.23
2019-05-09T12:09:09.647Z,11.48
2019-05-09T12:11:44.223Z,12.75
2019-05-09T12:14:10.807Z,12.37
2019-05-09T12:16:40.429Z,13.65
2019-05-09T12:19:10.087Z,11.00
2019-05-09T12:21:47.610Z,9.68
2019-05-09T12:24:11.589Z,9.38
2019-05-09T12:26:41.215Z,9.05
2019-05-09T12:29:10.887Z,10.15
2019-05-09T12:31:40.512Z,11.30
2019-05-09T12:34:10.192Z,15.20
2019-05-09T12:36:40.117Z,11.22
2019-05-09T12:39:09.754Z,12.20
2019-05-09T12:41:39.873Z,10.58
2019-05-09T12:44:09.690Z,11.60
2019-05-09T12:46:39.666Z,11.85
2019-05-09T12:49:09.343Z,12.00
2019-05-09T12:51:38.969Z,13.28
2019-05-09T12:54:08.870Z,12.18
2019-05-09T12:56:38.749Z,12.18
2019-05-09T12:59:08.943Z,10.72
2019-05-09T13:01:40.779Z,13.20
2019-05-09T13:04:10.025Z,9.83
2019-05-09T13:06:39.693Z,10.18
2019-05-09T13:09:09.334Z,10.58
2019-05-09T13:11:39.305Z,10.28
2019-05-09T13:14:10.112Z,9.63
2019-05-09T13:16:49.036Z,10.75
2019-05-09T13:19:14.671Z,10.03
2019-05-09T13:21:44.328Z,12.60
2019-05-09T13:24:13.958Z,11.25
2019-05-09T13:26:47.824Z,8.08
2019-05-09T13:29:16.650Z,8.15
2019-05-09T13:31:48.310Z,10.08
2019-05-09T13:34:18.860Z,9.30
2019-05-09T13:36:49.093Z,9.08
2019-05-09T13:39:18.734Z,9.30
2019-05-09T13:41:48.376Z,10.13
2019-05-09T13:44:18.348Z,12.43
2019-05-09T13:46:48.829Z,10.55
2019-05-09T13:49:19.389Z,10.75
2019-05-09T13:51:58.572Z,12.33
2019-05-09T13:54:20.526Z,9.70
2019-05-09T13:56:56.985Z,11.55
2019-05-09T13:59:21.643Z,11.80
2019-05-09T14:01:51.312Z,14.10
2019-05-09T14:04:21.432Z,10.35
2019-05-09T14:06:51.783Z,8.93
2019-05-09T14:09:21.412Z,12.28
2019-05-09T14:11:52.067Z,10.28
2019-05-09T14:14:21.699Z,10.05
2019-05-09T14:16:51.360Z,10.25
2019-05-09T14:19:35.921Z,10.38
2019-05-09T14:21:52.361Z,13.13
2019-05-09T14:24:22.070Z,9.03
2019-05-09T14:26:51.718Z,8.85
2019-05-09T14:29:21.336Z,9.48
2019-05-09T14:31:51.091Z,10.72
2019-05-09T14:34:21.120Z,12.82
2019-05-09T14:36:50.776Z,17.82
2019-05-09T14:39:20.427Z,11.73
2019-05-09T14:41:50.069Z,11.73
2019-05-09T14:44:19.697Z,11.73
2019-05-09T14:46:49.371Z,14.13
2019-05-09T14:49:19.584Z,17.02
2019-05-09T14:51:50.044Z,12.60
2019-05-09T14:54:19.855Z,10.98
2019-05-09T14:56:49.513Z,9.98
2019-05-09T14:59:19.150Z,10.80
2019-05-09T15:01:49.503Z,10.48
2019-05-09T15:04:19.403Z,10.90
2019-05-09T15:06:49.061Z,11.03
2019-05-09T15:09:18.681Z,9.33
2019-05-09T15:11:48.699Z,11.97
2019-05-09T15:14:18.455Z,10.48
2019-05-09T15:16:48.656Z,10.40
2019-05-09T15:19:18.568Z,13.22
2019-05-09T15:21:48.915Z,12.25
2019-05-09T15:24:19.407Z,13.03
2019-05-09T15:26:49.317Z,11.60
2019-05-09T15:29:19.283Z,16.17
2019-05-09T15:31:54.265Z,14.23
2019-05-09T15:34:20.357Z,31.52
2019-05-09T15:36:51.149Z,36.25
2019-05-09T15:39:20.803Z,12.73
2019-05-09T15:41:50.432Z,10.35
2019-05-09T15:44:20.108Z,10.60
2019-05-09T15:47:03.435Z,10.43
2019-05-09T15:49:33.110Z,8.85
2019-05-09T15:52:03.109Z,11.40
2019-05-09T15:54:32.812Z,15.08
2019-05-09T15:57:11.820Z,12.73
2019-05-09T15:59:43.189Z,32.13
2019-05-09T16:02:12.977Z,13.13
2019-05-09T16:04:43.096Z,10.95
2019-05-09T16:07:13.193Z,11.08
2019-05-09T16:09:42.852Z,12.33
2019-05-09T16:12:12.480Z,12.03
2019-05-09T16:14:42.176Z,11.73
2019-05-09T16:17:11.900Z,12.10
2019-05-09T16:19:41.559Z,9.80
2019-05-09T16:22:11.183Z,10.25
2019-05-09T16:24:43.347Z,13.03
2019-05-09T16:27:13.065Z,10.60
2019-05-09T16:29:43.027Z,11.38
2019-05-09T16:32:12.752Z,11.97
2019-05-09T16:34:42.412Z,11.35
2019-05-09T16:37:12.067Z,13.00
2019-05-09T16:39:43.083Z,13.70
2019-05-09T16:42:12.730Z,14.98
2019-05-09T16:44:42.398Z,13.08
2019-05-09T16:47:12.025Z,11.80
2019-05-09T16:49:41.693Z,10.10
2019-05-09T16:52:11.323Z,10.00
2019-05-09T16:54:42.701Z,11.73
2019-05-09T16:57:12.433Z,10.32
2019-05-09T16:59:42.259Z,11.75
2019-05-09T17:02:21.800Z,13.03
2019-05-09T17:04:43.310Z,11.38
2019-05-09T17:07:15.375Z,17.35
2019-05-09T17:09:48.363Z,11.20
2019-05-09T17:12:18.617Z,13.15
2019-05-09T17:14:50.081Z,39.45
2019-05-09T17:17:19.785Z,47.20
2019-05-09T17:19:50.740Z,29.15
2019-05-09T17:22:40.689Z,14.25
2019-05-09T17:25:10.586Z,12.58
2019-05-09T17:27:40.203Z,13.03
2019-05-09T17:30:10.197Z,12.75
2019-05-09T17:32:40.115Z,11.68
2019-05-09T17:35:09.864Z,11.68
2019-05-09T17:37:39.543Z,14.40
2019-05-09T17:40:10.190Z,16.60
2019-05-09T17:42:39.821Z,12.37
2019-05-09T17:45:09.495Z,11.53
2019-05-09T17:47:39.191Z,12.58
2019-05-09T17:50:08.986Z,12.35
2019-05-09T17:52:38.617Z,15.68
2019-05-09T17:55:08.295Z,19.37
2019-05-09T17:57:38.802Z,36.30
2019-05-09T18:00:10.671Z,26.27
2019-05-09T18:02:40.303Z,23.30
2019-05-09T18:05:10.116Z,20.12
2019-05-09T18:07:39.747Z,26.50
2019-05-09T18:10:09.879Z,104.30
2019-05-09T18:12:39.523Z,156.80
2019-05-09T18:15:09.434Z,115.25
2019-05-09T18:17:39.390Z,81.53
2019-05-09T18:20:09.325Z,55.33
2019-05-09T18:22:38.951Z,56.25
2019-05-09T18:25:09.939Z,59.20
2019-05-09T18:27:39.603Z,159.60
2019-05-09T18:30:10.083Z,325.18
2019-05-09T18:32:41.682Z,347.07
2019-05-09T18:35:13.173Z,270.52
2019-05-09T18:37:43.074Z,244.82
2019-05-09T18:40:13.450Z,177.38
2019-05-09T18:42:47.568Z,161.90
2019-05-09T18:45:17.746Z,154.38
2019-05-09T18:47:50.754Z,142.53
2019-05-09T18:50:22.230Z,139.52
2019-05-09T18:52:55.001Z,123.15
2019-05-09T18:55:24.770Z,115.62
2019-05-09T18:57:56.799Z,111.80
2019-05-09T19:00:27.273Z,107.50
2019-05-09T19:02:57.080Z,112.32
2019-05-09T19:05:27.156Z,111.25
2019-05-09T19:07:58.887Z,77.08
2019-05-09T19:10:28.629Z,82.17
2019-05-09T19:12:58.285Z,78.92
2019-05-09T19:15:41.598Z,110.52
2019-05-09T19:18:12.902Z,117.37
2019-05-09T19:20:50.251Z,101.45
2019-05-09T19:23:21.631Z,102.60
2019-05-09T19:25:53.488Z,88.90
2019-05-09T19:28:25.074Z,85.30
2019-05-09T19:30:54.860Z,74.70
2019-05-09T19:33:24.834Z,67.97
2019-05-09T19:35:54.608Z,73.00
2019-05-09T19:38:24.404Z,73.47
2019-05-09T19:40:54.220Z,72.25
2019-05-09T19:43:23.951Z,60.75
2019-05-09T19:45:53.669Z,67.32
2019-05-09T19:48:26.154Z,75.47
2019-05-09T19:50:58.857Z,71.97
2019-05-09T19:53:28.673Z,62.93
2019-05-09T19:55:58.543Z,68.92
2019-05-09T19:58:28.294Z,70.95
2019-05-09T20:00:58.052Z,79.53
2019-05-09T20:03:27.815Z,70.17
2019-05-09T20:06:00.576Z,72.08
2019-05-09T20:08:34.118Z,69.22
2019-05-09T20:11:06.889Z,69.53
2019-05-09T20:13:54.250Z,74.80
2019-05-09T20:16:24.263Z,85.25
2019-05-09T20:18:54.069Z,75.45
2019-05-09T20:21:23.882Z,74.53
2019-05-09T20:23:53.655Z,66.00
2019-05-09T20:26:23.438Z,68.83
2019-05-09T20:28:53.128Z,73.90
2019-05-09T20:31:23.286Z,78.67
2019-05-09T20:33:53.255Z,74.32
2019-05-09T20:36:22.932Z,83.85
2019-05-09T20:38:53.484Z,76.95
2019-05-09T20:41:26.926Z,79.32
2019-05-09T20:43:56.785Z,78.72
2019-05-09T20:46:26.717Z,87.15
2019-05-09T20:48:56.570Z,88.07
2019-05-09T20:51:26.388Z,83.90
2019-05-09T20:53:56.332Z,86.80
2019-05-09T20:56:26.143Z,87.02
2019-05-09T20:58:56.071Z,95.00
2019-05-09T21:01:25.887Z,86.02
2019-05-09T21:04:00.176Z,85.83
2019-05-09T21:06:27.262Z,76.20
2019-05-09T21:08:57.098Z,88.37
2019-05-09T21:11:26.917Z,86.05
2019-05-09T21:13:56.948Z,84.42
2019-05-09T21:16:26.760Z,109.72
2019-05-09T21:18:56.596Z,84.55
2019-05-09T21:21:26.401Z,95.42
2019-05-09T21:23:56.242Z,96.78
2019-05-09T21:26:26.052Z,116.97
2019-05-09T21:28:55.889Z,142.90
2019-05-09T21:31:25.711Z,103.60
2019-05-09T21:33:55.766Z,103.42
2019-05-09T21:36:25.423Z,101.65
2019-05-09T21:38:55.057Z,116.77
2019-05-09T21:41:24.721Z,136.88
2019-05-09T21:43:54.349Z,143.60
2019-05-09T21:46:24.014Z,151.37
2019-05-09T21:48:53.640Z,149.25
2019-05-09T21:51:23.300Z,151.12
2019-05-09T21:53:52.928Z,144.68
2019-05-09T21:56:22.585Z,131.45
2019-05-09T21:58:52.215Z,138.07
2019-05-09T22:01:21.945Z,139.65
2019-05-09T22:03:51.813Z,141.73
2019-05-09T22:06:21.469Z,142.35
2019-05-09T22:08:51.145Z,143.45
2019-05-09T22:11:20.909Z,137.85
2019-05-09T22:13:50.536Z,124.70
2019-05-09T22:16:20.196Z,120.47
2019-05-09T22:18:49.892Z,118.08
2019-05-09T22:21:22.469Z,104.12
2019-05-09T22:23:56.622Z,87.33
2019-05-09T22:26:23.466Z,86.10
2019-05-09T22:28:53.091Z,81.65
2019-05-09T22:31:22.748Z,66.77
2019-05-09T22:33:52.383Z,59.25
2019-05-09T22:36:22.035Z,56.35
2019-05-09T22:38:51.670Z,53.38
2019-05-09T22:41:21.319Z,48.48
2019-05-09T22:43:50.948Z,89.85
2019-05-09T22:46:20.609Z,105.37
2019-05-09T22:48:50.240Z,55.60
2019-05-09T22:51:19.992Z,51.33
2019-05-09T22:53:49.621Z,57.58
2019-05-09T22:56:19.323Z,76.82
2019-05-09T22:58:48.938Z,72.58
2019-05-09T23:01:18.700Z,66.28
2019-05-09T23:03:48.522Z,71.97
2019-05-09T23:06:18.278Z,53.45
2019-05-09T23:08:48.004Z,48.10
2019-05-09T23:11:17.753Z,55.28
2019-05-09T23:13:53.408Z,59.20
2019-05-09T23:16:25.638Z,60.73
2019-05-09T23:18:55.623Z,54.70
2019-05-09T23:21:27.019Z,51.42
2019-05-09T23:24:04.418Z,54.53
2019-05-09T23:26:34.200Z,53.23
2019-05-09T23:29:03.896Z,53.83
2019-05-09T23:31:35.791Z,47.27
2019-05-09T23:34:05.656Z,47.88
2019-05-09T23:36:35.709Z,54.98
2019-05-09T23:39:19.752Z,49.23
2019-05-09T23:41:49.505Z,40.88
2019-05-09T23:44:19.150Z,44.75
2019-05-09T23:46:48.778Z,44.95
2019-05-09T23:49:18.442Z,40.20
2019-05-09T23:51:48.829Z,39.50
2019-05-09T23:54:46.427Z,40.10
2019-05-09T23:57:29.654Z,37.08
